sensor_id;sensor_type;location;lat;lon;timestamp;P1;durP1;ratioP1;P2;durP2;ratioP2
12972;SDS011;6551;51.056;9.466;2023-02-10T00:01:25;37.07;;;20.10;;
12972;SDS011;6551;51.056;9.466;2023-02-10T00:03:54;36.43;;;21.43;;
12972;SDS011;6551;51.056;9.466;2023-02-10T00:06:23;38.37;;;20.20;;
12972;SDS011;6551;51.056;9.466;2023-02-10T00:08:52;40.30;;;21.13;;
12972;SDS011;6551;51.056;9.466;2023-02-10T00:11:23;34.37;;;19.13;;
12972;SDS011;6551;51.056;9.466;2023-02-10T00:14:09;38.63;;;21.63;;
12972;SDS011;6551;51.056;9.466;2023-02-10T00:16:36;37.13;;;20.90;;
12972;SDS011;6551;51.056;9.466;2023-02-10T00:19:04;39.97;;;21.43;;
12972;SDS011;6551;51.056;9.466;2023-02-10T00:21:30;36.70;;;21.93;;
12972;SDS011;6551;51.056;9.466;2023-02-10T00:23:57;37.43;;;19.97;;
12972;SDS011;6551;51.056;9.466;2023-02-10T00:26:24;37.27;;;21.33;;
12972;SDS011;6551;51.056;9.466;2023-02-10T00:28:51;45.00;;;24.10;;
12972;SDS011;6551;51.056;9.466;2023-02-10T00:31:16;41.57;;;22.97;;
12972;SDS011;6551;51.056;9.466;2023-02-10T00:33:43;40.37;;;22.03;;
12972;SDS011;6551;51.056;9.466;2023-02-10T00:36:10;39.60;;;21.70;;
12972;SDS011;6551;51.056;9.466;2023-02-10T00:38:38;39.20;;;21.67;;
12972;SDS011;6551;51.056;9.466;2023-02-10T00:41:05;39.13;;;21.57;;
12972;SDS011;6551;51.056;9.466;2023-02-10T00:43:35;39.37;;;22.70;;
12972;SDS011;6551;51.056;9.466;2023-02-10T00:46:03;40.10;;;21.07;;
12972;SDS011;6551;51.056;9.466;2023-02-10T00:48:30;50.50;;;28.03;;
12972;SDS011;6551;51.056;9.466;2023-02-10T00:50:56;43.03;;;25.30;;
12972;SDS011;6551;51.056;9.466;2023-02-10T00:53:23;40.73;;;21.57;;
12972;SDS011;6551;51.056;9.466;2023-02-10T00:55:48;36.00;;;20.63;;
12972;SDS011;6551;51.056;9.466;2023-02-10T00:58:14;37.87;;;20.80;;
12972;SDS011;6551;51.056;9.466;2023-02-10T01:00:41;42.03;;;22.67;;
12972;SDS011;6551;51.056;9.466;2023-02-10T01:03:06;35.17;;;21.70;;
12972;SDS011;6551;51.056;9.466;2023-02-10T01:05:33;38.20;;;20.77;;
12972;SDS011;6551;51.056;9.466;2023-02-10T01:08:00;38.03;;;20.87;;
12972;SDS011;6551;51.056;9.466;2023-02-10T01:10:26;36.80;;;20.67;;
12972;SDS011;6551;51.056;9.466;2023-02-10T01:12:54;38.40;;;21.60;;
12972;SDS011;6551;51.056;9.466;2023-02-10T01:15:21;39.77;;;22.17;;
12972;SDS011;6551;51.056;9.466;2023-02-10T01:17:48;40.83;;;21.63;;
12972;SDS011;6551;51.056;9.466;2023-02-10T01:20:14;37.37;;;21.57;;
12972;SDS011;6551;51.056;9.466;2023-02-10T01:22:40;37.37;;;21.40;;
12972;SDS011;6551;51.056;9.466;2023-02-10T01:25:06;37.00;;;21.97;;
12972;SDS011;6551;51.056;9.466;2023-02-10T01:27:33;38.03;;;21.13;;
12972;SDS011;6551;51.056;9.466;2023-02-10T01:29:59;37.10;;;21.60;;
12972;SDS011;6551;51.056;9.466;2023-02-10T01:32:25;41.90;;;22.07;;
12972;SDS011;6551;51.056;9.466;2023-02-10T01:34:52;38.40;;;22.40;;
12972;SDS011;6551;51.056;9.466;2023-02-10T01:37:20;39.17;;;23.47;;
12972;SDS011;6551;51.056;9.466;2023-02-10T01:39:46;39.30;;;23.30;;
12972;SDS011;6551;51.056;9.466;2023-02-10T01:42:12;37.70;;;22.17;;
12972;SDS011;6551;51.056;9.466;2023-02-10T01:47:05;42.17;;;23.00;;
12972;SDS011;6551;51.056;9.466;2023-02-10T01:49:34;40.57;;;22.33;;
12972;SDS011;6551;51.056;9.466;2023-02-10T01:52:11;41.30;;;23.13;;
12972;SDS011;6551;51.056;9.466;2023-02-10T01:54:50;39.33;;;23.40;;
12972;SDS011;6551;51.056;9.466;2023-02-10T01:57:26;40.80;;;22.97;;
12972;SDS011;6551;51.056;9.466;2023-02-10T01:59:53;40.37;;;23.57;;
12972;SDS011;6551;51.056;9.466;2023-02-10T02:02:18;41.57;;;23.57;;
12972;SDS011;6551;51.056;9.466;2023-02-10T02:04:47;43.43;;;24.90;;
12972;SDS011;6551;51.056;9.466;2023-02-10T02:07:25;40.20;;;23.20;;
12972;SDS011;6551;51.056;9.466;2023-02-10T02:09:55;37.87;;;23.70;;
12972;SDS011;6551;51.056;9.466;2023-02-10T02:12:27;44.90;;;24.03;;
12972;SDS011;6551;51.056;9.466;2023-02-10T02:15:14;43.27;;;23.50;;
12972;SDS011;6551;51.056;9.466;2023-02-10T02:18:14;40.73;;;22.97;;
12972;SDS011;6551;51.056;9.466;2023-02-10T02:24:01;41.40;;;23.67;;
12972;SDS011;6551;51.056;9.466;2023-02-10T02:30:59;45.97;;;23.60;;
12972;SDS011;6551;51.056;9.466;2023-02-10T02:33:47;43.17;;;23.80;;
12972;SDS011;6551;51.056;9.466;2023-02-10T02:36:22;43.80;;;23.67;;
12972;SDS011;6551;51.056;9.466;2023-02-10T02:39:00;43.60;;;23.80;;
12972;SDS011;6551;51.056;9.466;2023-02-10T02:41:29;41.67;;;24.43;;
12972;SDS011;6551;51.056;9.466;2023-02-10T02:43:58;44.17;;;23.90;;
12972;SDS011;6551;51.056;9.466;2023-02-10T02:49:26;43.73;;;23.47;;
12972;SDS011;6551;51.056;9.466;2023-02-10T02:52:11;48.07;;;25.57;;
12972;SDS011;6551;51.056;9.466;2023-02-10T02:54:54;36.23;;;22.33;;
12972;SDS011;6551;51.056;9.466;2023-02-10T02:57:32;42.03;;;24.73;;
12972;SDS011;6551;51.056;9.466;2023-02-10T03:00:29;44.60;;;24.30;;
12972;SDS011;6551;51.056;9.466;2023-02-10T03:03:01;44.07;;;25.67;;
12972;SDS011;6551;51.056;9.466;2023-02-10T03:05:30;40.23;;;23.63;;
12972;SDS011;6551;51.056;9.466;2023-02-10T03:07:58;40.77;;;23.70;;
12972;SDS011;6551;51.056;9.466;2023-02-10T03:10:25;45.63;;;24.67;;
12972;SDS011;6551;51.056;9.466;2023-02-10T03:12:54;45.37;;;24.13;;
12972;SDS011;6551;51.056;9.466;2023-02-10T03:15:21;47.30;;;24.37;;
12972;SDS011;6551;51.056;9.466;2023-02-10T03:17:46;44.27;;;25.00;;
12972;SDS011;6551;51.056;9.466;2023-02-10T03:20:15;50.83;;;26.13;;
12972;SDS011;6551;51.056;9.466;2023-02-10T03:22:41;43.87;;;24.83;;
12972;SDS011;6551;51.056;9.466;2023-02-10T03:25:08;41.13;;;23.80;;
12972;SDS011;6551;51.056;9.466;2023-02-10T03:27:34;40.87;;;23.40;;
12972;SDS011;6551;51.056;9.466;2023-02-10T03:30:00;44.23;;;25.13;;
12972;SDS011;6551;51.056;9.466;2023-02-10T03:32:27;45.63;;;25.27;;
12972;SDS011;6551;51.056;9.466;2023-02-10T03:34:54;45.40;;;24.80;;
12972;SDS011;6551;51.056;9.466;2023-02-10T03:37:19;40.43;;;23.73;;
12972;SDS011;6551;51.056;9.466;2023-02-10T03:39:45;44.43;;;24.43;;
12972;SDS011;6551;51.056;9.466;2023-02-10T03:42:11;43.90;;;24.73;;
12972;SDS011;6551;51.056;9.466;2023-02-10T03:44:37;44.00;;;24.90;;
12972;SDS011;6551;51.056;9.466;2023-02-10T03:47:03;45.63;;;25.00;;
12972;SDS011;6551;51.056;9.466;2023-02-10T03:49:31;45.30;;;23.97;;
12972;SDS011;6551;51.056;9.466;2023-02-10T03:51:56;40.63;;;24.03;;
12972;SDS011;6551;51.056;9.466;2023-02-10T03:54:23;40.43;;;25.20;;
12972;SDS011;6551;51.056;9.466;2023-02-10T03:56:49;40.07;;;23.67;;
12972;SDS011;6551;51.056;9.466;2023-02-10T03:59:16;42.70;;;24.33;;
12972;SDS011;6551;51.056;9.466;2023-02-10T04:01:41;47.47;;;24.97;;
12972;SDS011;6551;51.056;9.466;2023-02-10T04:04:07;42.03;;;24.13;;
12972;SDS011;6551;51.056;9.466;2023-02-10T04:06:33;44.30;;;24.40;;
12972;SDS011;6551;51.056;9.466;2023-02-10T04:08:59;55.70;;;32.40;;
12972;SDS011;6551;51.056;9.466;2023-02-10T04:11:24;44.53;;;26.20;;
12972;SDS011;6551;51.056;9.466;2023-02-10T04:13:50;43.03;;;23.77;;
12972;SDS011;6551;51.056;9.466;2023-02-10T04:16:16;44.47;;;24.73;;
12972;SDS011;6551;51.056;9.466;2023-02-10T04:18:44;45.57;;;26.43;;
12972;SDS011;6551;51.056;9.466;2023-02-10T04:21:10;42.97;;;24.07;;
12972;SDS011;6551;51.056;9.466;2023-02-10T04:23:39;40.97;;;23.23;;
12972;SDS011;6551;51.056;9.466;2023-02-10T04:26:04;43.60;;;24.40;;
12972;SDS011;6551;51.056;9.466;2023-02-10T04:28:30;40.83;;;24.63;;
12972;SDS011;6551;51.056;9.466;2023-02-10T04:30:57;43.47;;;23.60;;
12972;SDS011;6551;51.056;9.466;2023-02-10T04:33:27;41.33;;;23.57;;
12972;SDS011;6551;51.056;9.466;2023-02-10T04:35:54;42.80;;;23.97;;
12972;SDS011;6551;51.056;9.466;2023-02-10T04:38:21;42.43;;;26.67;;
12972;SDS011;6551;51.056;9.466;2023-02-10T04:40:47;51.13;;;28.47;;
12972;SDS011;6551;51.056;9.466;2023-02-10T04:43:14;52.47;;;31.17;;
12972;SDS011;6551;51.056;9.466;2023-02-10T04:45:41;51.73;;;29.20;;
12972;SDS011;6551;51.056;9.466;2023-02-10T04:48:07;47.17;;;26.57;;
12972;SDS011;6551;51.056;9.466;2023-02-10T04:50:35;45.83;;;25.67;;
12972;SDS011;6551;51.056;9.466;2023-02-10T04:53:03;45.93;;;25.60;;
12972;SDS011;6551;51.056;9.466;2023-02-10T04:55:31;43.07;;;25.83;;
12972;SDS011;6551;51.056;9.466;2023-02-10T04:57:59;58.37;;;27.67;;
12972;SDS011;6551;51.056;9.466;2023-02-10T05:00:26;46.33;;;25.73;;
12972;SDS011;6551;51.056;9.466;2023-02-10T05:02:53;47.97;;;26.67;;
12972;SDS011;6551;51.056;9.466;2023-02-10T05:05:19;43.37;;;25.73;;
12972;SDS011;6551;51.056;9.466;2023-02-10T05:07:45;45.33;;;25.30;;
12972;SDS011;6551;51.056;9.466;2023-02-10T05:10:12;46.67;;;25.43;;
12972;SDS011;6551;51.056;9.466;2023-02-10T05:12:39;42.50;;;25.17;;
12972;SDS011;6551;51.056;9.466;2023-02-10T05:15:05;41.73;;;24.03;;
12972;SDS011;6551;51.056;9.466;2023-02-10T05:17:34;43.53;;;25.43;;
12972;SDS011;6551;51.056;9.466;2023-02-10T05:20:02;43.83;;;26.83;;
12972;SDS011;6551;51.056;9.466;2023-02-10T05:22:29;42.13;;;24.80;;
12972;SDS011;6551;51.056;9.466;2023-02-10T05:24:56;48.67;;;26.60;;
12972;SDS011;6551;51.056;9.466;2023-02-10T05:27:24;47.07;;;26.10;;
12972;SDS011;6551;51.056;9.466;2023-02-10T05:29:50;46.43;;;25.83;;
12972;SDS011;6551;51.056;9.466;2023-02-10T05:32:16;44.50;;;24.93;;
12972;SDS011;6551;51.056;9.466;2023-02-10T05:34:42;45.97;;;26.70;;
12972;SDS011;6551;51.056;9.466;2023-02-10T05:37:08;48.00;;;27.10;;
12972;SDS011;6551;51.056;9.466;2023-02-10T05:39:35;45.23;;;25.97;;
12972;SDS011;6551;51.056;9.466;2023-02-10T05:42:00;42.93;;;25.13;;
12972;SDS011;6551;51.056;9.466;2023-02-10T05:44:28;44.77;;;26.10;;
12972;SDS011;6551;51.056;9.466;2023-02-10T05:46:55;45.00;;;26.27;;
12972;SDS011;6551;51.056;9.466;2023-02-10T05:49:21;47.47;;;27.27;;
12972;SDS011;6551;51.056;9.466;2023-02-10T05:51:47;51.20;;;27.33;;
12972;SDS011;6551;51.056;9.466;2023-02-10T05:54:12;49.80;;;27.13;;
12972;SDS011;6551;51.056;9.466;2023-02-10T05:56:39;51.07;;;27.40;;
12972;SDS011;6551;51.056;9.466;2023-02-10T05:59:04;50.27;;;27.40;;
12972;SDS011;6551;51.056;9.466;2023-02-10T06:01:32;51.43;;;29.33;;
12972;SDS011;6551;51.056;9.466;2023-02-10T06:03:58;77.83;;;34.37;;
12972;SDS011;6551;51.056;9.466;2023-02-10T06:06:25;103.53;;;39.73;;
12972;SDS011;6551;51.056;9.466;2023-02-10T06:08:51;57.50;;;29.80;;
12972;SDS011;6551;51.056;9.466;2023-02-10T06:11:19;59.60;;;30.00;;
12972;SDS011;6551;51.056;9.466;2023-02-10T06:13:46;98.23;;;40.70;;
12972;SDS011;6551;51.056;9.466;2023-02-10T06:16:11;126.20;;;47.67;;
12972;SDS011;6551;51.056;9.466;2023-02-10T06:18:37;155.10;;;50.90;;
12972;SDS011;6551;51.056;9.466;2023-02-10T06:21:04;64.93;;;30.63;;
12972;SDS011;6551;51.056;9.466;2023-02-10T06:23:31;114.43;;;41.00;;
12972;SDS011;6551;51.056;9.466;2023-02-10T06:25:58;74.27;;;34.83;;
12972;SDS011;6551;51.056;9.466;2023-02-10T06:28:27;166.40;;;48.00;;
12972;SDS011;6551;51.056;9.466;2023-02-10T06:30:54;144.90;;;44.23;;
12972;SDS011;6551;51.056;9.466;2023-02-10T06:33:20;278.33;;;60.90;;
12972;SDS011;6551;51.056;9.466;2023-02-10T06:35:46;147.10;;;45.77;;
12972;SDS011;6551;51.056;9.466;2023-02-10T06:38:12;100.00;;;36.60;;
12972;SDS011;6551;51.056;9.466;2023-02-10T06:40:39;54.23;;;29.80;;
12972;SDS011;6551;51.056;9.466;2023-02-10T06:43:05;63.80;;;30.17;;
12972;SDS011;6551;51.056;9.466;2023-02-10T06:45:31;70.33;;;30.97;;
12972;SDS011;6551;51.056;9.466;2023-02-10T06:47:58;57.20;;;29.70;;
12972;SDS011;6551;51.056;9.466;2023-02-10T06:50:25;55.03;;;30.60;;
12972;SDS011;6551;51.056;9.466;2023-02-10T06:52:51;60.50;;;31.17;;
12972;SDS011;6551;51.056;9.466;2023-02-10T06:55:17;58.10;;;30.57;;
12972;SDS011;6551;51.056;9.466;2023-02-10T06:57:43;61.73;;;32.33;;
12972;SDS011;6551;51.056;9.466;2023-02-10T07:00:10;66.23;;;32.27;;
12972;SDS011;6551;51.056;9.466;2023-02-10T07:02:41;68.20;;;33.50;;
12972;SDS011;6551;51.056;9.466;2023-02-10T07:05:09;71.60;;;34.30;;
12972;SDS011;6551;51.056;9.466;2023-02-10T07:07:37;68.83;;;34.90;;
12972;SDS011;6551;51.056;9.466;2023-02-10T07:10:05;74.50;;;35.23;;
12972;SDS011;6551;51.056;9.466;2023-02-10T07:12:33;74.67;;;35.73;;
12972;SDS011;6551;51.056;9.466;2023-02-10T07:15:01;73.47;;;33.90;;
12972;SDS011;6551;51.056;9.466;2023-02-10T07:17:26;72.93;;;35.60;;
12972;SDS011;6551;51.056;9.466;2023-02-10T07:19:53;73.07;;;35.73;;
12972;SDS011;6551;51.056;9.466;2023-02-10T07:22:19;70.40;;;33.97;;
12972;SDS011;6551;51.056;9.466;2023-02-10T07:24:45;76.30;;;36.53;;
12972;SDS011;6551;51.056;9.466;2023-02-10T07:27:12;74.90;;;36.37;;
12972;SDS011;6551;51.056;9.466;2023-02-10T07:29:39;82.07;;;36.57;;
12972;SDS011;6551;51.056;9.466;2023-02-10T07:32:06;74.30;;;36.23;;
12972;SDS011;6551;51.056;9.466;2023-02-10T07:34:33;74.50;;;35.50;;
12972;SDS011;6551;51.056;9.466;2023-02-10T07:37:01;77.13;;;35.73;;
12972;SDS011;6551;51.056;9.466;2023-02-10T07:39:27;81.30;;;36.17;;
12972;SDS011;6551;51.056;9.466;2023-02-10T07:41:53;83.37;;;38.03;;
12972;SDS011;6551;51.056;9.466;2023-02-10T07:44:18;76.47;;;36.30;;
12972;SDS011;6551;51.056;9.466;2023-02-10T07:46:47;86.10;;;37.90;;
12972;SDS011;6551;51.056;9.466;2023-02-10T07:49:16;83.43;;;38.53;;
12972;SDS011;6551;51.056;9.466;2023-02-10T07:51:43;80.80;;;38.10;;
12972;SDS011;6551;51.056;9.466;2023-02-10T07:54:09;77.97;;;36.20;;
12972;SDS011;6551;51.056;9.466;2023-02-10T07:56:35;88.97;;;38.37;;
12972;SDS011;6551;51.056;9.466;2023-02-10T07:59:02;81.27;;;35.70;;
12972;SDS011;6551;51.056;9.466;2023-02-10T08:01:29;92.57;;;38.97;;
12972;SDS011;6551;51.056;9.466;2023-02-10T08:03:56;92.67;;;41.57;;
12972;SDS011;6551;51.056;9.466;2023-02-10T08:06:23;83.57;;;38.40;;
12972;SDS011;6551;51.056;9.466;2023-02-10T08:08:52;83.00;;;38.03;;
12972;SDS011;6551;51.056;9.466;2023-02-10T08:11:19;74.83;;;35.07;;
12972;SDS011;6551;51.056;9.466;2023-02-10T08:13:45;75.03;;;34.67;;
12972;SDS011;6551;51.056;9.466;2023-02-10T08:16:10;76.77;;;35.83;;
12972;SDS011;6551;51.056;9.466;2023-02-10T08:18:37;81.40;;;37.27;;
12972;SDS011;6551;51.056;9.466;2023-02-10T08:21:05;89.70;;;36.43;;
12972;SDS011;6551;51.056;9.466;2023-02-10T08:23:31;79.37;;;35.07;;
12972;SDS011;6551;51.056;9.466;2023-02-10T08:26:02;82.60;;;37.03;;
12972;SDS011;6551;51.056;9.466;2023-02-10T08:28:34;84.37;;;35.53;;
12972;SDS011;6551;51.056;9.466;2023-02-10T08:31:02;79.60;;;36.13;;
12972;SDS011;6551;51.056;9.466;2023-02-10T08:33:30;84.93;;;35.70;;
12972;SDS011;6551;51.056;9.466;2023-02-10T08:35:58;78.30;;;35.77;;
12972;SDS011;6551;51.056;9.466;2023-02-10T08:38:32;73.37;;;33.93;;
12972;SDS011;6551;51.056;9.466;2023-02-10T08:40:59;76.53;;;33.30;;
12972;SDS011;6551;51.056;9.466;2023-02-10T08:43:27;71.93;;;33.73;;
12972;SDS011;6551;51.056;9.466;2023-02-10T08:45:57;92.30;;;36.93;;
12972;SDS011;6551;51.056;9.466;2023-02-10T08:48:26;74.77;;;35.00;;
12972;SDS011;6551;51.056;9.466;2023-02-10T08:50:52;77.30;;;36.93;;
12972;SDS011;6551;51.056;9.466;2023-02-10T08:53:20;76.67;;;35.50;;
12972;SDS011;6551;51.056;9.466;2023-02-10T08:55:57;80.77;;;36.40;;
12972;SDS011;6551;51.056;9.466;2023-02-10T08:58:27;88.37;;;38.13;;
12972;SDS011;6551;51.056;9.466;2023-02-10T09:00:55;75.57;;;34.67;;
12972;SDS011;6551;51.056;9.466;2023-02-10T09:03:21;72.07;;;32.13;;
12972;SDS011;6551;51.056;9.466;2023-02-10T09:05:49;76.77;;;34.43;;
12972;SDS011;6551;51.056;9.466;2023-02-10T09:08:15;66.30;;;31.93;;
12972;SDS011;6551;51.056;9.466;2023-02-10T09:10:42;67.53;;;33.27;;
12972;SDS011;6551;51.056;9.466;2023-02-10T09:13:09;61.53;;;32.07;;
12972;SDS011;6551;51.056;9.466;2023-02-10T09:15:38;61.40;;;30.73;;
12972;SDS011;6551;51.056;9.466;2023-02-10T09:18:07;62.93;;;32.83;;
12972;SDS011;6551;51.056;9.466;2023-02-10T09:20:36;70.63;;;35.27;;
12972;SDS011;6551;51.056;9.466;2023-02-10T09:23:02;66.63;;;33.10;;
12972;SDS011;6551;51.056;9.466;2023-02-10T09:25:29;63.27;;;32.77;;
12972;SDS011;6551;51.056;9.466;2023-02-10T09:27:55;63.83;;;31.73;;
12972;SDS011;6551;51.056;9.466;2023-02-10T09:30:22;63.27;;;31.33;;
12972;SDS011;6551;51.056;9.466;2023-02-10T09:32:50;69.00;;;35.03;;
12972;SDS011;6551;51.056;9.466;2023-02-10T09:35:16;58.80;;;31.73;;
12972;SDS011;6551;51.056;9.466;2023-02-10T09:37:42;62.33;;;31.30;;
12972;SDS011;6551;51.056;9.466;2023-02-10T09:40:19;57.33;;;31.03;;
12972;SDS011;6551;51.056;9.466;2023-02-10T09:43:12;60.17;;;29.00;;
12972;SDS011;6551;51.056;9.466;2023-02-10T09:46:01;56.73;;;30.27;;
12972;SDS011;6551;51.056;9.466;2023-02-10T09:51:50;63.83;;;32.43;;
12972;SDS011;6551;51.056;9.466;2023-02-10T09:54:41;58.70;;;31.10;;
12972;SDS011;6551;51.056;9.466;2023-02-10T09:57:11;59.50;;;31.50;;
12972;SDS011;6551;51.056;9.466;2023-02-10T09:59:41;64.03;;;33.17;;
12972;SDS011;6551;51.056;9.466;2023-02-10T10:02:54;61.37;;;33.57;;
12972;SDS011;6551;51.056;9.466;2023-02-10T10:05:09;54.53;;;31.63;;
12972;SDS011;6551;51.056;9.466;2023-02-10T10:08:43;63.57;;;33.53;;
12972;SDS011;6551;51.056;9.466;2023-02-10T10:11:25;60.03;;;31.30;;
12972;SDS011;6551;51.056;9.466;2023-02-10T10:14:18;63.03;;;31.93;;
12972;SDS011;6551;51.056;9.466;2023-02-10T10:20:20;55.53;;;31.43;;
12972;SDS011;6551;51.056;9.466;2023-02-10T10:23:11;53.30;;;29.90;;
12972;SDS011;6551;51.056;9.466;2023-02-10T10:26:07;55.47;;;30.40;;
12972;SDS011;6551;51.056;9.466;2023-02-10T10:29:23;54.00;;;29.53;;
12972;SDS011;6551;51.056;9.466;2023-02-10T10:35:26;55.70;;;32.23;;
12972;SDS011;6551;51.056;9.466;2023-02-10T10:38:00;57.33;;;31.97;;
12972;SDS011;6551;51.056;9.466;2023-02-10T10:40:53;54.80;;;28.13;;
12972;SDS011;6551;51.056;9.466;2023-02-10T10:43:29;64.67;;;31.63;;
12972;SDS011;6551;51.056;9.466;2023-02-10T10:46:10;64.67;;;30.27;;
12972;SDS011;6551;51.056;9.466;2023-02-10T10:48:43;64.83;;;32.53;;
12972;SDS011;6551;51.056;9.466;2023-02-10T10:51:09;79.97;;;34.43;;
12972;SDS011;6551;51.056;9.466;2023-02-10T10:53:56;67.53;;;32.93;;
12972;SDS011;6551;51.056;9.466;2023-02-10T10:56:37;69.53;;;32.20;;
12972;SDS011;6551;51.056;9.466;2023-02-10T10:59:37;55.43;;;31.07;;
12972;SDS011;6551;51.056;9.466;2023-02-10T11:02:11;66.87;;;33.33;;
12972;SDS011;6551;51.056;9.466;2023-02-10T11:04:45;65.10;;;32.57;;
12972;SDS011;6551;51.056;9.466;2023-02-10T11:07:25;70.40;;;31.50;;
12972;SDS011;6551;51.056;9.466;2023-02-10T11:09:54;64.83;;;31.63;;
12972;SDS011;6551;51.056;9.466;2023-02-10T11:12:22;61.57;;;30.50;;
12972;SDS011;6551;51.056;9.466;2023-02-10T11:14:52;50.60;;;27.40;;
12972;SDS011;6551;51.056;9.466;2023-02-10T11:22:59;67.93;;;36.07;;
12972;SDS011;6551;51.056;9.466;2023-02-10T11:26:19;56.80;;;31.53;;
12972;SDS011;6551;51.056;9.466;2023-02-10T11:28:50;61.80;;;30.07;;
12972;SDS011;6551;51.056;9.466;2023-02-10T11:31:25;57.53;;;28.77;;
12972;SDS011;6551;51.056;9.466;2023-02-10T11:36:55;68.57;;;33.17;;
12972;SDS011;6551;51.056;9.466;2023-02-10T11:39:44;59.70;;;31.03;;
12972;SDS011;6551;51.056;9.466;2023-02-10T11:42:19;61.80;;;31.93;;
12972;SDS011;6551;51.056;9.466;2023-02-10T11:45:03;55.57;;;27.80;;
12972;SDS011;6551;51.056;9.466;2023-02-10T11:48:05;50.90;;;27.97;;
12972;SDS011;6551;51.056;9.466;2023-02-10T11:50:43;59.30;;;27.87;;
12972;SDS011;6551;51.056;9.466;2023-02-10T11:53:24;62.20;;;29.43;;
12972;SDS011;6551;51.056;9.466;2023-02-10T11:55:59;61.60;;;31.03;;
12972;SDS011;6551;51.056;9.466;2023-02-10T12:00:29;55.47;;;29.60;;
12972;SDS011;6551;51.056;9.466;2023-02-10T12:05:39;59.53;;;29.93;;
12972;SDS011;6551;51.056;9.466;2023-02-10T12:08:29;49.83;;;28.93;;
12972;SDS011;6551;51.056;9.466;2023-02-10T12:20:59;58.27;;;29.83;;
12972;SDS011;6551;51.056;9.466;2023-02-10T12:26:34;53.93;;;29.50;;
12972;SDS011;6551;51.056;9.466;2023-02-10T12:39:25;55.17;;;30.27;;
12972;SDS011;6551;51.056;9.466;2023-02-10T12:45:19;49.50;;;25.80;;
12972;SDS011;6551;51.056;9.466;2023-02-10T12:48:36;57.50;;;29.30;;
12972;SDS011;6551;51.056;9.466;2023-02-10T12:57:13;53.87;;;31.13;;
12972;SDS011;6551;51.056;9.466;2023-02-10T12:59:52;61.10;;;30.20;;
12972;SDS011;6551;51.056;9.466;2023-02-10T13:03:08;56.33;;;30.37;;
12972;SDS011;6551;51.056;9.466;2023-02-10T13:05:46;45.30;;;26.80;;
12972;SDS011;6551;51.056;9.466;2023-02-10T13:08:35;54.30;;;26.87;;
12972;SDS011;6551;51.056;9.466;2023-02-10T13:14:05;67.10;;;36.47;;
12972;SDS011;6551;51.056;9.466;2023-02-10T13:16:41;61.10;;;32.90;;
12972;SDS011;6551;51.056;9.466;2023-02-10T13:22:16;55.70;;;30.53;;
12972;SDS011;6551;51.056;9.466;2023-02-10T13:25:36;54.10;;;28.67;;
12972;SDS011;6551;51.056;9.466;2023-02-10T13:31:46;56.17;;;30.23;;
12972;SDS011;6551;51.056;9.466;2023-02-10T13:34:50;54.73;;;27.63;;
12972;SDS011;6551;51.056;9.466;2023-02-10T13:40:28;56.67;;;28.80;;
12972;SDS011;6551;51.056;9.466;2023-02-10T13:45:59;49.10;;;28.03;;
12972;SDS011;6551;51.056;9.466;2023-02-10T13:48:28;49.53;;;26.53;;
12972;SDS011;6551;51.056;9.466;2023-02-10T13:51:05;59.17;;;29.67;;
12972;SDS011;6551;51.056;9.466;2023-02-10T14:04:51;63.93;;;28.50;;
12972;SDS011;6551;51.056;9.466;2023-02-10T14:10:07;58.20;;;28.40;;
12972;SDS011;6551;51.056;9.466;2023-02-10T14:15:38;50.60;;;26.73;;
12972;SDS011;6551;51.056;9.466;2023-02-10T14:18:21;49.63;;;27.13;;
12972;SDS011;6551;51.056;9.466;2023-02-10T14:21:03;51.10;;;28.13;;
12972;SDS011;6551;51.056;9.466;2023-02-10T14:23:43;49.90;;;27.40;;
12972;SDS011;6551;51.056;9.466;2023-02-10T14:26:22;43.80;;;23.67;;
12972;SDS011;6551;51.056;9.466;2023-02-10T14:28:56;46.40;;;26.73;;
12972;SDS011;6551;51.056;9.466;2023-02-10T14:31:34;47.73;;;26.67;;
12972;SDS011;6551;51.056;9.466;2023-02-10T14:34:04;49.50;;;25.13;;
12972;SDS011;6551;51.056;9.466;2023-02-10T14:36:53;51.30;;;26.83;;
12972;SDS011;6551;51.056;9.466;2023-02-10T14:39:30;49.30;;;27.20;;
12972;SDS011;6551;51.056;9.466;2023-02-10T14:42:00;47.03;;;24.80;;
12972;SDS011;6551;51.056;9.466;2023-02-10T14:44:43;53.80;;;27.67;;
12972;SDS011;6551;51.056;9.466;2023-02-10T14:47:16;43.90;;;26.43;;
12972;SDS011;6551;51.056;9.466;2023-02-10T14:49:51;61.40;;;25.83;;
12972;SDS011;6551;51.056;9.466;2023-02-10T14:52:30;44.20;;;24.87;;
12972;SDS011;6551;51.056;9.466;2023-02-10T14:54:57;52.10;;;25.73;;
12972;SDS011;6551;51.056;9.466;2023-02-10T14:57:26;47.53;;;25.70;;
12972;SDS011;6551;51.056;9.466;2023-02-10T14:59:53;44.70;;;25.57;;
12972;SDS011;6551;51.056;9.466;2023-02-10T15:02:26;54.17;;;25.90;;
12972;SDS011;6551;51.056;9.466;2023-02-10T15:04:57;45.20;;;25.27;;
12972;SDS011;6551;51.056;9.466;2023-02-10T15:07:30;51.00;;;25.07;;
12972;SDS011;6551;51.056;9.466;2023-02-10T15:10:02;43.17;;;24.23;;
12972;SDS011;6551;51.056;9.466;2023-02-10T15:12:59;44.60;;;25.50;;
12972;SDS011;6551;51.056;9.466;2023-02-10T15:15:33;46.90;;;24.60;;
12972;SDS011;6551;51.056;9.466;2023-02-10T15:18:23;42.03;;;25.23;;
12972;SDS011;6551;51.056;9.466;2023-02-10T15:20:58;43.60;;;23.23;;
12972;SDS011;6551;51.056;9.466;2023-02-10T15:23:29;46.57;;;24.13;;
12972;SDS011;6551;51.056;9.466;2023-02-10T15:25:59;41.40;;;23.27;;
12972;SDS011;6551;51.056;9.466;2023-02-10T15:28:28;45.23;;;21.73;;
12972;SDS011;6551;51.056;9.466;2023-02-10T15:31:28;40.30;;;23.47;;
12972;SDS011;6551;51.056;9.466;2023-02-10T15:33:56;46.50;;;24.70;;
12972;SDS011;6551;51.056;9.466;2023-02-10T15:36:32;41.50;;;23.87;;
12972;SDS011;6551;51.056;9.466;2023-02-10T15:39:13;40.77;;;23.80;;
12972;SDS011;6551;51.056;9.466;2023-02-10T15:42:20;41.80;;;23.03;;
12972;SDS011;6551;51.056;9.466;2023-02-10T15:44:47;46.27;;;23.07;;
12972;SDS011;6551;51.056;9.466;2023-02-10T15:47:26;43.07;;;23.80;;
12972;SDS011;6551;51.056;9.466;2023-02-10T15:50:10;43.43;;;23.20;;
12972;SDS011;6551;51.056;9.466;2023-02-10T15:52:41;42.27;;;24.37;;
12972;SDS011;6551;51.056;9.466;2023-02-10T15:55:14;45.73;;;24.43;;
12972;SDS011;6551;51.056;9.466;2023-02-10T15:57:45;40.57;;;22.73;;
12972;SDS011;6551;51.056;9.466;2023-02-10T16:02:50;43.33;;;23.90;;
12972;SDS011;6551;51.056;9.466;2023-02-10T16:05:18;45.00;;;23.27;;
12972;SDS011;6551;51.056;9.466;2023-02-10T16:07:45;44.40;;;24.63;;
12972;SDS011;6551;51.056;9.466;2023-02-10T16:10:15;42.67;;;24.03;;
12972;SDS011;6551;51.056;9.466;2023-02-10T16:12:50;44.03;;;24.00;;
12972;SDS011;6551;51.056;9.466;2023-02-10T16:15:20;44.37;;;23.63;;
12972;SDS011;6551;51.056;9.466;2023-02-10T16:17:51;59.00;;;31.63;;
12972;SDS011;6551;51.056;9.466;2023-02-10T16:20:23;50.33;;;26.13;;
12972;SDS011;6551;51.056;9.466;2023-02-10T16:22:56;49.03;;;26.67;;
12972;SDS011;6551;51.056;9.466;2023-02-10T16:25:24;50.37;;;27.07;;
12972;SDS011;6551;51.056;9.466;2023-02-10T16:27:52;46.80;;;26.23;;
12972;SDS011;6551;51.056;9.466;2023-02-10T16:30:24;46.10;;;25.53;;
12972;SDS011;6551;51.056;9.466;2023-02-10T16:32:54;44.33;;;24.60;;
12972;SDS011;6551;51.056;9.466;2023-02-10T16:35:22;42.03;;;23.80;;
12972;SDS011;6551;51.056;9.466;2023-02-10T16:37:48;42.87;;;24.60;;
12972;SDS011;6551;51.056;9.466;2023-02-10T16:40:23;40.50;;;23.40;;
12972;SDS011;6551;51.056;9.466;2023-02-10T16:42:59;47.63;;;24.57;;
12972;SDS011;6551;51.056;9.466;2023-02-10T16:45:28;42.57;;;24.37;;